createdAt,value
2022-11-03T00:01:45.769Z,7.07
2022-11-03T00:04:15.486Z,5.78
2022-11-03T00:06:44.170Z,13.27
2022-11-03T00:09:14.669Z,7.00
2022-11-03T00:11:43.514Z,7.47
2022-11-03T00:14:11.423Z,8.02
2022-11-03T00:16:39.762Z,9.85
2022-11-03T00:19:08.318Z,8.02
2022-11-03T00:21:38.640Z,11.95
2022-11-03T00:24:06.022Z,11.27
2022-11-03T00:26:35.098Z,8.13
2022-11-03T00:29:10.500Z,7.55
2022-11-03T00:31:39.679Z,5.38
2022-11-03T00:34:08.854Z,7.78
2022-11-03T00:36:41.908Z,8.25
2022-11-03T00:39:09.778Z,7.43
2022-11-03T00:41:38.470Z,10.15
2022-11-03T00:44:05.850Z,7.85
2022-11-03T00:46:36.240Z,7.38
2022-11-03T00:49:04.710Z,7.40
2022-11-03T00:51:34.544Z,7.43
2022-11-03T00:54:03.091Z,5.43
2022-11-03T00:56:32.612Z,8.98
2022-11-03T00:59:01.468Z,6.65
2022-11-03T01:01:38.091Z,8.63
2022-11-03T01:04:28.991Z,7.05
2022-11-03T01:06:58.700Z,7.20
2022-11-03T01:09:37.657Z,7.88
2022-11-03T01:12:10.574Z,8.50
2022-11-03T01:14:39.098Z,7.43
2022-11-03T01:17:11.426Z,11.75
2022-11-03T01:19:38.505Z,9.50
2022-11-03T01:22:09.533Z,7.05
2022-11-03T01:24:38.087Z,4.82
2022-11-03T01:27:05.899Z,7.03
2022-11-03T01:29:32.994Z,10.43
2022-11-03T01:32:00.164Z,9.77
2022-11-03T01:34:27.040Z,6.03
2022-11-03T01:36:53.981Z,7.32
2022-11-03T01:39:20.998Z,7.85
2022-11-03T01:41:51.433Z,7.13
2022-11-03T01:44:18.291Z,9.13
2022-11-03T01:46:52.497Z,12.88
2022-11-03T01:49:46.331Z,8.85
2022-11-03T01:52:20.002Z,6.78
2022-11-03T01:54:51.785Z,5.25
2022-11-03T01:57:28.198Z,4.32
2022-11-03T01:59:58.594Z,4.47
2022-11-03T02:02:27.652Z,6.85
2022-11-03T02:05:00.819Z,5.00
2022-11-03T02:07:37.533Z,5.88
2022-11-03T02:10:05.611Z,7.50
2022-11-03T02:12:33.549Z,8.38
2022-11-03T02:15:10.705Z,9.73
2022-11-03T02:17:39.834Z,10.00
2022-11-03T02:20:11.465Z,6.82
2022-11-03T02:22:50.496Z,8.38
2022-11-03T02:25:44.813Z,5.55
2022-11-03T02:28:15.344Z,10.45
2022-11-03T02:31:04.611Z,6.88
2022-11-03T02:33:41.671Z,7.35
2022-11-03T02:36:27.002Z,6.10
2022-11-03T02:39:03.512Z,9.13
2022-11-03T02:41:34.497Z,4.90
2022-11-03T02:44:04.227Z,6.30
2022-11-03T02:46:32.908Z,7.75
2022-11-03T02:48:59.898Z,5.10
2022-11-03T02:51:27.593Z,5.32
2022-11-03T02:54:38.853Z,7.32
2022-11-03T02:57:21.828Z,9.50
2022-11-03T03:00:00.304Z,12.55
2022-11-03T03:02:50.915Z,6.07
2022-11-03T03:05:21.238Z,5.63
2022-11-03T03:07:53.246Z,10.35
2022-11-03T03:10:28.596Z,10.30
2022-11-03T03:13:00.910Z,10.15
2022-11-03T03:15:50.016Z,4.05
2022-11-03T03:18:23.502Z,9.32
2022-11-03T03:21:01.910Z,5.10
2022-11-03T03:23:37.570Z,6.25
2022-11-03T03:26:10.261Z,7.50
2022-11-03T03:28:49.734Z,4.72
2022-11-03T03:31:19.927Z,7.20
2022-11-03T03:33:49.221Z,5.15
2022-11-03T03:36:19.278Z,4.53
2022-11-03T03:38:54.650Z,5.32
2022-11-03T03:41:24.876Z,5.15
2022-11-03T03:43:58.796Z,7.18
2022-11-03T03:46:34.102Z,6.18
2022-11-03T03:49:05.610Z,5.13
2022-11-03T03:51:35.671Z,6.43
2022-11-03T03:54:03.576Z,3.97
2022-11-03T03:56:36.270Z,6.00
2022-11-03T03:59:03.540Z,7.55
2022-11-03T04:01:30.510Z,4.95
2022-11-03T04:03:58.030Z,3.72
2022-11-03T04:06:24.959Z,5.95
2022-11-03T04:08:51.922Z,4.18
2022-11-03T04:11:37.166Z,10.68
2022-11-03T04:14:22.969Z,4.57
2022-11-03T04:17:08.711Z,4.97
2022-11-03T04:19:54.309Z,4.50
2022-11-03T04:22:22.382Z,7.97
2022-11-03T04:24:51.501Z,6.57
2022-11-03T04:27:41.435Z,3.70
2022-11-03T04:30:22.309Z,5.07
2022-11-03T04:32:52.986Z,6.25
2022-11-03T04:35:24.468Z,4.95
2022-11-03T04:37:57.456Z,5.32
2022-11-03T04:40:26.499Z,5.45
2022-11-03T04:42:56.196Z,9.80
2022-11-03T04:45:34.722Z,3.67
2022-11-03T04:48:09.650Z,5.18
2022-11-03T04:50:36.752Z,8.68
2022-11-03T04:53:10.259Z,8.07
2022-11-03T04:55:37.248Z,7.40
2022-11-03T04:58:13.654Z,6.15
2022-11-03T05:00:41.830Z,8.23
2022-11-03T05:03:15.266Z,7.60
2022-11-03T05:05:45.225Z,4.20
2022-11-03T05:08:12.736Z,5.00
2022-11-03T05:10:40.145Z,7.78
2022-11-03T05:13:17.730Z,7.70
2022-11-03T05:15:46.308Z,8.50
2022-11-03T05:18:21.332Z,16.33
2022-11-03T05:21:03.963Z,44.88
2022-11-03T05:23:37.771Z,43.10
2022-11-03T05:26:06.421Z,15.10
2022-11-03T05:28:41.172Z,12.48
2022-11-03T05:31:19.360Z,8.20
2022-11-03T05:33:49.923Z,5.78
2022-11-03T05:36:21.811Z,7.47
2022-11-03T05:38:49.203Z,11.07
2022-11-03T05:41:23.922Z,9.55
2022-11-03T05:44:03.885Z,4.50
2022-11-03T05:46:35.330Z,8.40
2022-11-03T05:49:03.774Z,6.82
2022-11-03T05:51:38.013Z,8.70
2022-11-03T05:54:19.632Z,6.40
2022-11-03T05:56:47.515Z,8.15
2022-11-03T05:59:23.213Z,7.45
2022-11-03T06:01:54.048Z,5.10
2022-11-03T06:04:29.053Z,6.18
2022-11-03T06:07:36.870Z,11.30
2022-11-03T06:10:27.981Z,9.40
2022-11-03T06:12:59.466Z,10.40
2022-11-03T06:15:32.518Z,8.07
2022-11-03T06:18:00.882Z,8.55
2022-11-03T06:20:28.224Z,10.32
2022-11-03T06:22:57.502Z,8.68
2022-11-03T06:25:24.582Z,7.18
2022-11-03T06:27:53.160Z,9.18
2022-11-03T06:30:20.254Z,5.35
2022-11-03T06:32:48.535Z,10.65
2022-11-03T06:35:15.743Z,8.15
2022-11-03T06:37:44.026Z,4.55
2022-11-03T06:40:11.044Z,7.45
2022-11-03T06:42:41.304Z,9.57
2022-11-03T06:45:20.746Z,9.27
2022-11-03T06:47:48.143Z,10.05
2022-11-03T06:50:25.860Z,7.18
2022-11-03T06:52:53.447Z,8.07
2022-11-03T06:55:31.336Z,12.13
2022-11-03T06:58:12.511Z,11.75
2022-11-03T07:00:48.888Z,9.52
2022-11-03T07:03:17.660Z,14.10
2022-11-03T07:05:48.069Z,12.38
2022-11-03T07:08:26.886Z,7.43
2022-11-03T07:11:21.733Z,11.52
2022-11-03T07:13:52.259Z,8.43
2022-11-03T07:16:30.305Z,5.43
2022-11-03T07:19:00.585Z,7.45
2022-11-03T07:22:01.255Z,11.65
2022-11-03T07:24:31.460Z,11.85
2022-11-03T07:27:21.127Z,10.50
2022-11-03T07:29:50.942Z,15.20
2022-11-03T07:32:24.118Z,11.88
2022-11-03T07:34:53.861Z,13.55
2022-11-03T07:37:26.003Z,7.85
2022-11-03T07:42:22.918Z,11.52
2022-11-03T07:44:52.992Z,7.90
2022-11-03T07:47:22.125Z,8.05
2022-11-03T07:49:49.251Z,9.88
2022-11-03T07:52:23.028Z,8.90
2022-11-03T07:54:52.288Z,12.48
2022-11-03T07:57:30.877Z,13.27
2022-11-03T08:00:08.846Z,10.73
2022-11-03T08:05:15.797Z,13.30
2022-11-03T08:07:42.737Z,12.85
2022-11-03T08:10:10.207Z,13.02
2022-11-03T08:12:37.066Z,36.08
2022-11-03T08:15:05.184Z,21.23
2022-11-03T08:17:32.042Z,24.50
2022-11-03T08:19:58.918Z,22.85
2022-11-03T08:22:26.262Z,21.45
2022-11-03T08:24:53.494Z,18.00
2022-11-03T08:27:20.687Z,22.10
2022-11-03T08:29:47.726Z,15.02
2022-11-03T08:32:14.671Z,16.75
2022-11-03T08:34:41.536Z,13.57
2022-11-03T08:37:08.466Z,10.10
2022-11-03T08:39:36.333Z,10.57
2022-11-03T08:42:03.539Z,7.85
2022-11-03T08:44:30.849Z,11.75
2022-11-03T08:46:57.769Z,10.15
2022-11-03T08:49:24.640Z,7.75
2022-11-03T08:51:51.787Z,13.07
2022-11-03T08:54:18.608Z,14.98
2022-11-03T08:56:46.797Z,14.40
2022-11-03T08:59:14.999Z,8.52
2022-11-03T09:01:41.933Z,10.52
2022-11-03T09:04:08.978Z,11.77
2022-11-03T09:06:36.086Z,9.60
2022-11-03T09:11:49.865Z,7.68
2022-11-03T09:14:17.399Z,9.20
2022-11-03T09:16:44.365Z,11.63
2022-11-03T09:19:11.294Z,10.57
2022-11-03T09:21:38.208Z,10.63
2022-11-03T09:24:05.560Z,14.35
2022-11-03T09:26:32.445Z,14.27
2022-11-03T09:28:59.406Z,9.45
2022-11-03T09:31:28.606Z,9.50
2022-11-03T09:33:55.802Z,8.23
2022-11-03T09:36:22.958Z,19.13
2022-11-03T09:38:49.851Z,15.15
2022-11-03T09:41:29.133Z,11.00
2022-11-03T09:44:07.087Z,17.15
2022-11-03T09:46:35.349Z,8.52
2022-11-03T09:49:05.165Z,9.95
2022-11-03T09:51:34.911Z,7.47
2022-11-03T09:54:05.974Z,7.57
2022-11-03T09:56:36.551Z,7.97
2022-11-03T09:59:15.462Z,8.35
2022-11-03T10:01:45.987Z,9.88
2022-11-03T10:04:13.280Z,10.32
2022-11-03T10:06:40.671Z,8.15
2022-11-03T10:09:14.877Z,7.05
2022-11-03T10:11:42.574Z,8.70
2022-11-03T10:14:13.429Z,8.65
2022-11-03T10:16:42.888Z,5.90
2022-11-03T10:19:15.068Z,4.63
2022-11-03T10:21:45.486Z,6.78
2022-11-03T10:24:13.384Z,6.60
2022-11-03T10:26:52.452Z,8.60
2022-11-03T10:29:27.341Z,8.68
2022-11-03T10:31:58.953Z,6.90
2022-11-03T10:34:34.413Z,9.98
2022-11-03T10:37:24.093Z,25.77
2022-11-03T10:39:56.931Z,12.25
2022-11-03T10:42:35.409Z,10.25
2022-11-03T10:45:20.833Z,5.75
2022-11-03T10:48:02.947Z,8.93
2022-11-03T10:57:57.202Z,6.35
2022-11-03T13:43:09.060Z,6.40
2022-11-03T13:45:36.287Z,6.85
2022-11-03T13:49:05.309Z,9.45
2022-11-03T13:50:52.529Z,5.47
2022-11-03T13:56:08.804Z,7.28
2022-11-03T14:01:24.770Z,7.05
2022-11-03T14:06:40.737Z,4.60
2022-11-03T14:09:07.934Z,5.00
2022-11-03T14:11:53.516Z,5.28
2022-11-03T14:14:21.645Z,4.47
2022-11-03T14:16:48.643Z,5.05
2022-11-03T14:19:15.593Z,6.13
2022-11-03T14:21:43.135Z,4.72
2022-11-03T14:24:10.074Z,3.10
2022-11-03T14:26:42.558Z,8.63
2022-11-03T14:29:10.690Z,5.22
2022-11-03T14:31:38.518Z,5.57
2022-11-03T14:34:05.550Z,6.38
2022-11-03T14:36:32.556Z,6.28
2022-11-03T14:38:59.695Z,4.35
2022-11-03T14:41:45.272Z,6.28
2022-11-03T14:44:12.754Z,4.55
2022-11-03T14:46:39.667Z,14.32
2022-11-03T14:49:06.577Z,11.43
2022-11-03T14:51:33.448Z,26.25
2022-11-03T14:54:00.320Z,37.30
2022-11-03T14:56:27.550Z,28.77
2022-11-03T14:58:55.070Z,28.55
2022-11-03T15:01:22.094Z,29.67
2022-11-03T15:03:49.097Z,30.15
2022-11-03T15:06:16.154Z,21.40
2022-11-03T15:08:43.099Z,26.92
2022-11-03T15:11:10.734Z,25.95
2022-11-03T15:13:43.971Z,30.20
2022-11-03T15:16:16.182Z,50.97
2022-11-03T15:18:44.715Z,37.65
2022-11-03T15:21:11.594Z,14.40
2022-11-03T15:26:25.699Z,14.07
2022-11-03T15:28:53.035Z,16.90
2022-11-03T15:31:20.004Z,25.95
2022-11-03T15:33:46.944Z,19.98
2022-11-03T15:36:14.036Z,25.17
2022-11-03T15:38:40.961Z,43.00
2022-11-03T15:41:16.956Z,22.48
2022-11-03T15:43:47.698Z,22.20
2022-11-03T15:46:16.420Z,17.98
2022-11-03T15:48:44.771Z,24.48
2022-11-03T15:51:13.132Z,15.50
2022-11-03T15:53:40.061Z,21.23
2022-11-03T15:56:08.254Z,29.95
2022-11-03T15:58:35.466Z,13.40
2022-11-03T16:01:03.378Z,13.68
2022-11-03T16:03:32.080Z,16.35
2022-11-03T16:05:59.515Z,16.52
2022-11-03T16:08:26.434Z,14.70
2022-11-03T16:10:57.844Z,10.95
2022-11-03T16:13:26.377Z,12.35
2022-11-03T16:15:54.662Z,19.88
2022-11-03T16:18:22.021Z,23.17
2022-11-03T16:20:50.325Z,22.33
2022-11-03T16:23:17.397Z,13.98
2022-11-03T16:25:44.263Z,14.38
2022-11-03T16:28:11.432Z,12.15
2022-11-03T16:30:38.852Z,20.70
2022-11-03T16:33:05.975Z,15.50
2022-11-03T16:35:33.550Z,14.55
2022-11-03T16:38:01.058Z,16.15
2022-11-03T16:40:28.277Z,47.28
2022-11-03T16:42:55.226Z,74.82
2022-11-03T16:45:26.063Z,58.60
2022-11-03T16:47:53.262Z,33.13
2022-11-03T16:50:20.593Z,31.45
2022-11-03T16:52:48.822Z,35.58
2022-11-03T16:55:17.581Z,21.42
2022-11-03T16:57:45.753Z,30.25
2022-11-03T17:00:15.947Z,19.15
2022-11-03T17:02:43.144Z,20.85
2022-11-03T17:05:11.244Z,17.75
2022-11-03T17:07:38.293Z,19.42
2022-11-03T17:10:06.714Z,19.17
2022-11-03T17:12:33.627Z,14.10
2022-11-03T17:15:00.560Z,12.25
2022-11-03T17:17:27.491Z,12.70
2022-11-03T17:19:54.748Z,31.92
2022-11-03T17:22:22.634Z,49.63
2022-11-03T17:24:50.725Z,22.08
2022-11-03T17:27:24.688Z,23.50
2022-11-03T17:29:55.843Z,12.23
2022-11-03T17:32:37.303Z,13.20
2022-11-03T17:35:14.105Z,19.17
2022-11-03T17:37:43.545Z,25.85
2022-11-03T17:40:22.347Z,32.67
2022-11-03T17:42:50.439Z,42.95
2022-11-03T17:45:22.707Z,44.90
2022-11-03T17:47:51.408Z,56.20
2022-11-03T17:50:22.604Z,61.80
2022-11-03T17:52:51.236Z,52.20
2022-11-03T17:55:20.926Z,38.40
2022-11-03T17:57:49.173Z,14.32
2022-11-03T18:00:20.722Z,16.83
2022-11-03T18:02:50.571Z,18.65
2022-11-03T18:05:28.763Z,13.30
2022-11-03T18:07:59.395Z,27.85
2022-11-03T18:10:30.138Z,50.83
2022-11-03T18:13:17.153Z,20.02
2022-11-03T18:16:09.358Z,18.48
2022-11-03T18:18:44.772Z,17.65
2022-11-03T18:21:20.282Z,16.05
2022-11-03T18:23:47.546Z,17.90
2022-11-03T18:26:23.355Z,23.17
2022-11-03T18:28:50.830Z,17.65
2022-11-03T18:31:17.596Z,14.68
2022-11-03T18:33:44.782Z,13.80
2022-11-03T18:36:14.917Z,14.02
2022-11-03T18:38:43.601Z,24.23
2022-11-03T18:41:34.289Z,32.88
2022-11-03T18:44:02.249Z,27.77
2022-11-03T18:46:30.605Z,28.75
2022-11-03T18:48:57.661Z,28.45
2022-11-03T18:51:24.702Z,35.88
2022-11-03T18:53:52.044Z,30.55
2022-11-03T18:56:20.092Z,19.23
2022-11-03T18:58:56.041Z,15.18
2022-11-03T19:01:27.596Z,12.02
2022-11-03T19:03:56.597Z,62.53
2022-11-03T19:06:24.693Z,20.10
2022-11-03T19:08:59.690Z,29.17
2022-11-03T19:11:26.791Z,24.40
2022-11-03T19:13:54.151Z,22.33
2022-11-03T19:16:24.156Z,15.50
2022-11-03T19:18:52.573Z,13.95
2022-11-03T19:21:23.439Z,12.18
2022-11-03T19:23:55.508Z,14.98
2022-11-03T19:26:44.007Z,16.42
2022-11-03T19:29:14.804Z,17.35
2022-11-03T19:31:47.181Z,12.10
2022-11-03T19:34:21.159Z,16.15
2022-11-03T19:36:50.933Z,14.35
2022-11-03T19:39:25.513Z,15.00
2022-11-03T19:42:11.593Z,24.15
2022-11-03T19:44:38.726Z,28.88
2022-11-03T19:47:07.802Z,55.22
2022-11-03T19:49:35.292Z,81.07
2022-11-03T19:52:02.414Z,68.28
2022-11-03T19:54:29.561Z,42.00
2022-11-03T19:56:57.122Z,25.58
2022-11-03T19:59:24.132Z,15.43
2022-11-03T20:01:51.130Z,17.00
2022-11-03T20:04:19.202Z,15.07
2022-11-03T20:06:46.301Z,18.70
2022-11-03T20:09:19.021Z,13.23
2022-11-03T20:11:46.385Z,15.27
2022-11-03T20:14:26.232Z,17.95
2022-11-03T20:16:58.857Z,15.85
2022-11-03T20:19:25.926Z,18.00
2022-11-03T20:21:52.987Z,16.88
2022-11-03T20:24:20.107Z,16.35
2022-11-03T20:26:47.312Z,20.55
2022-11-03T20:29:17.848Z,15.88
2022-11-03T20:31:45.236Z,12.82
2022-11-03T20:34:16.158Z,21.60
2022-11-03T20:36:44.050Z,10.80
2022-11-03T20:39:15.291Z,22.73
2022-11-03T20:41:46.441Z,14.75
2022-11-03T20:44:14.506Z,15.23
2022-11-03T20:46:42.375Z,23.77
2022-11-03T20:49:10.042Z,17.33
2022-11-03T20:51:46.000Z,14.93
2022-11-03T20:54:20.492Z,15.98
2022-11-03T20:56:48.082Z,16.33
2022-11-03T20:59:18.011Z,23.20
2022-11-03T21:01:45.796Z,31.52
2022-11-03T21:04:17.834Z,42.78
2022-11-03T21:06:45.025Z,27.92
2022-11-03T21:09:15.080Z,29.05
2022-11-03T21:11:43.626Z,13.82
2022-11-03T21:14:16.489Z,9.40
2022-11-03T21:17:02.652Z,10.57
2022-11-03T21:19:50.987Z,13.07
2022-11-03T21:25:19.281Z,9.23
2022-11-03T21:27:46.640Z,10.95
2022-11-03T21:30:16.866Z,8.65
2022-11-03T21:32:43.801Z,10.77
2022-11-03T21:35:14.919Z,8.35
2022-11-03T21:37:44.957Z,12.05
2022-11-03T21:40:11.997Z,12.70
2022-11-03T21:42:57.771Z,12.88
2022-11-03T21:45:25.379Z,13.15
2022-11-03T21:48:13.999Z,11.90
2022-11-03T21:50:42.791Z,14.50
2022-11-03T21:53:10.969Z,13.00
2022-11-03T21:55:38.284Z,210.18
2022-11-03T21:58:05.441Z,106.35
2022-11-03T22:00:33.232Z,92.45
2022-11-03T22:03:01.022Z,50.88
2022-11-03T22:05:28.552Z,41.70
2022-11-03T22:07:55.713Z,33.42
2022-11-03T22:10:23.793Z,15.85
2022-11-03T22:12:51.640Z,11.98
2022-11-03T22:15:37.019Z,15.20
2022-11-03T22:18:05.982Z,15.77
2022-11-03T22:20:59.339Z,13.73
2022-11-03T22:23:44.583Z,22.55
2022-11-03T22:26:31.640Z,25.25
2022-11-03T22:29:25.028Z,10.02
2022-11-03T22:31:51.997Z,9.90
2022-11-03T22:34:37.513Z,8.57
2022-11-03T22:37:04.500Z,11.25
2022-11-03T22:39:50.108Z,9.98
2022-11-03T22:45:29.256Z,12.90
2022-11-03T22:47:57.619Z,68.72
2022-11-03T22:50:24.947Z,61.90
2022-11-03T22:52:51.834Z,67.30
2022-11-03T22:55:18.728Z,66.18
2022-11-03T22:57:45.740Z,62.97
2022-11-03T23:00:13.832Z,102.70
2022-11-03T23:02:40.736Z,100.22
2022-11-03T23:05:08.204Z,68.57
2022-11-03T23:07:40.043Z,76.07
2022-11-03T23:10:08.880Z,97.43
2022-11-03T23:12:35.805Z,88.13
2022-11-03T23:15:21.352Z,73.03
2022-11-03T23:18:07.828Z,53.60
2022-11-03T23:20:56.874Z,90.95
2022-11-03T23:23:42.543Z,54.28
2022-11-03T23:26:09.685Z,46.05
2022-11-03T23:28:36.839Z,48.25
2022-11-03T23:31:03.787Z,68.45
2022-11-03T23:33:31.370Z,33.75
2022-11-03T23:36:02.238Z,27.83
2022-11-03T23:38:32.424Z,22.38
2022-11-03T23:41:08.081Z,17.27
2022-11-03T23:43:35.157Z,16.60
2022-11-03T23:46:20.591Z,16.20
2022-11-03T23:48:47.659Z,15.38
2022-11-03T23:51:19.893Z,12.52
2022-11-03T23:53:47.535Z,7.85
2022-11-03T23:56:35.880Z,12.48
2022-11-03T23:59:04.452Z,18.42
